sensor_id;sensor_type;location;lat;lon;timestamp;temperature;humidity
27026;DHT22;14565;48.626;8.978;2023-07-29T00:01:23;16.90;99.90
27026;DHT22;14565;48.626;8.978;2023-07-29T00:03:49;16.90;99.90
27026;DHT22;14565;48.626;8.978;2023-07-29T00:06:15;16.90;99.90
27026;DHT22;14565;48.626;8.978;2023-07-29T00:08:40;16.90;99.90
27026;DHT22;14565;48.626;8.978;2023-07-29T00:11:06;16.90;99.90
27026;DHT22;14565;48.626;8.978;2023-07-29T00:13:32;16.80;99.90
27026;DHT22;14565;48.626;8.978;2023-07-29T00:15:57;16.80;99.90
27026;DHT22;14565;48.626;8.978;2023-07-29T00:18:23;16.90;99.90
27026;DHT22;14565;48.626;8.978;2023-07-29T00:20:49;16.90;99.90
27026;DHT22;14565;48.626;8.978;2023-07-29T00:23:17;16.90;99.90
27026;DHT22;14565;48.626;8.978;2023-07-29T00:25:44;16.90;99.90
27026;DHT22;14565;48.626;8.978;2023-07-29T00:28:11;16.90;99.90
27026;DHT22;14565;48.626;8.978;2023-07-29T00:30:36;16.90;99.90
27026;DHT22;14565;48.626;8.978;2023-07-29T00:33:02;16.80;99.90
27026;DHT22;14565;48.626;8.978;2023-07-29T00:35:28;16.80;99.90
27026;DHT22;14565;48.626;8.978;2023-07-29T00:37:53;16.90;99.90
27026;DHT22;14565;48.626;8.978;2023-07-29T00:40:21;16.80;99.90
27026;DHT22;14565;48.626;8.978;2023-07-29T00:42:47;16.80;99.90
27026;DHT22;14565;48.626;8.978;2023-07-29T00:45:13;16.80;99.90
27026;DHT22;14565;48.626;8.978;2023-07-29T00:47:39;16.80;99.90
27026;DHT22;14565;48.626;8.978;2023-07-29T00:50:06;16.80;99.90
27026;DHT22;14565;48.626;8.978;2023-07-29T00:52:32;16.80;99.90
27026;DHT22;14565;48.626;8.978;2023-07-29T00:54:58;16.80;99.90
27026;DHT22;14565;48.626;8.978;2023-07-29T00:57:24;16.80;99.90
27026;DHT22;14565;48.626;8.978;2023-07-29T00:59:51;16.80;99.90
27026;DHT22;14565;48.626;8.978;2023-07-29T01:02:17;16.90;99.90
27026;DHT22;14565;48.626;8.978;2023-07-29T01:04:42;16.80;99.90
27026;DHT22;14565;48.626;8.978;2023-07-29T01:08:11;16.90;99.90
27026;DHT22;14565;48.626;8.978;2023-07-29T01:10:07;16.90;99.90
27026;DHT22;14565;48.626;8.978;2023-07-29T01:12:49;16.80;99.90
27026;DHT22;14565;48.626;8.978;2023-07-29T01:15:31;16.80;99.90
27026;DHT22;14565;48.626;8.978;2023-07-29T01:18:05;16.70;99.90
27026;DHT22;14565;48.626;8.978;2023-07-29T01:20:34;16.70;99.90
27026;DHT22;14565;48.626;8.978;2023-07-29T01:23:01;16.80;99.90
27026;DHT22;14565;48.626;8.978;2023-07-29T01:25:26;16.70;99.90
27026;DHT22;14565;48.626;8.978;2023-07-29T01:27:52;16.80;99.90
27026;DHT22;14565;48.626;8.978;2023-07-29T01:30:20;16.80;99.90
27026;DHT22;14565;48.626;8.978;2023-07-29T01:35:36;16.70;99.90
27026;DHT22;14565;48.626;8.978;2023-07-29T01:38:09;16.70;99.90
27026;DHT22;14565;48.626;8.978;2023-07-29T01:40:36;16.70;99.90
27026;DHT22;14565;48.626;8.978;2023-07-29T01:43:02;16.70;99.90
27026;DHT22;14565;48.626;8.978;2023-07-29T01:45:28;16.70;99.90
27026;DHT22;14565;48.626;8.978;2023-07-29T01:47:57;16.60;99.90
27026;DHT22;14565;48.626;8.978;2023-07-29T01:50:22;16.60;99.90
27026;DHT22;14565;48.626;8.978;2023-07-29T01:52:48;16.60;99.90
27026;DHT22;14565;48.626;8.978;2023-07-29T01:55:14;16.60;99.90
27026;DHT22;14565;48.626;8.978;2023-07-29T01:57:39;16.60;99.90
27026;DHT22;14565;48.626;8.978;2023-07-29T02:00:06;16.60;99.90
27026;DHT22;14565;48.626;8.978;2023-07-29T02:02:32;16.60;99.90
27026;DHT22;14565;48.626;8.978;2023-07-29T02:04:57;16.60;99.90
27026;DHT22;14565;48.626;8.978;2023-07-29T02:07:23;16.60;99.90
27026;DHT22;14565;48.626;8.978;2023-07-29T02:09:51;16.50;99.90
27026;DHT22;14565;48.626;8.978;2023-07-29T02:12:17;16.50;99.90
27026;DHT22;14565;48.626;8.978;2023-07-29T02:14:43;16.50;99.90
27026;DHT22;14565;48.626;8.978;2023-07-29T02:17:08;16.40;99.90
27026;DHT22;14565;48.626;8.978;2023-07-29T02:19:34;16.40;99.90
27026;DHT22;14565;48.626;8.978;2023-07-29T02:22:00;16.50;99.90
27026;DHT22;14565;48.626;8.978;2023-07-29T02:24:26;16.40;99.90
27026;DHT22;14565;48.626;8.978;2023-07-29T02:26:51;16.50;99.90
27026;DHT22;14565;48.626;8.978;2023-07-29T02:29:17;16.40;99.90
27026;DHT22;14565;48.626;8.978;2023-07-29T02:31:43;16.40;99.90
27026;DHT22;14565;48.626;8.978;2023-07-29T02:34:09;16.40;99.90
27026;DHT22;14565;48.626;8.978;2023-07-29T02:36:35;16.40;99.90
27026;DHT22;14565;48.626;8.978;2023-07-29T02:39:01;16.50;99.90
27026;DHT22;14565;48.626;8.978;2023-07-29T02:41:26;16.40;99.90
27026;DHT22;14565;48.626;8.978;2023-07-29T02:43:52;16.50;99.90
27026;DHT22;14565;48.626;8.978;2023-07-29T02:46:18;16.50;99.90
27026;DHT22;14565;48.626;8.978;2023-07-29T02:48:44;16.50;99.90
27026;DHT22;14565;48.626;8.978;2023-07-29T02:51:10;16.50;99.90
27026;DHT22;14565;48.626;8.978;2023-07-29T02:53:36;16.50;99.90
27026;DHT22;14565;48.626;8.978;2023-07-29T02:56:03;16.50;99.90
27026;DHT22;14565;48.626;8.978;2023-07-29T02:58:29;16.50;99.90
27026;DHT22;14565;48.626;8.978;2023-07-29T03:01:01;16.50;99.90
27026;DHT22;14565;48.626;8.978;2023-07-29T03:03:30;16.50;99.90
27026;DHT22;14565;48.626;8.978;2023-07-29T03:06:04;16.50;99.90
27026;DHT22;14565;48.626;8.978;2023-07-29T03:08:30;16.50;99.90
27026;DHT22;14565;48.626;8.978;2023-07-29T03:10:56;16.50;99.90
27026;DHT22;14565;48.626;8.978;2023-07-29T03:13:22;16.50;99.90
27026;DHT22;14565;48.626;8.978;2023-07-29T03:15:48;16.50;99.90
27026;DHT22;14565;48.626;8.978;2023-07-29T03:18:14;16.50;99.90
27026;DHT22;14565;48.626;8.978;2023-07-29T03:20:40;16.50;99.90
27026;DHT22;14565;48.626;8.978;2023-07-29T03:23:06;16.50;99.90
27026;DHT22;14565;48.626;8.978;2023-07-29T03:25:32;16.50;99.90
27026;DHT22;14565;48.626;8.978;2023-07-29T03:27:57;16.40;99.90
27026;DHT22;14565;48.626;8.978;2023-07-29T03:30:23;16.40;99.90
27026;DHT22;14565;48.626;8.978;2023-07-29T03:32:49;16.50;99.90
27026;DHT22;14565;48.626;8.978;2023-07-29T03:35:15;16.50;99.90
27026;DHT22;14565;48.626;8.978;2023-07-29T03:37:41;16.50;99.90
27026;DHT22;14565;48.626;8.978;2023-07-29T03:40:08;16.50;99.90
27026;DHT22;14565;48.626;8.978;2023-07-29T03:42:36;16.50;99.90
27026;DHT22;14565;48.626;8.978;2023-07-29T03:45:02;16.50;99.90
27026;DHT22;14565;48.626;8.978;2023-07-29T03:47:28;16.50;99.90
27026;DHT22;14565;48.626;8.978;2023-07-29T03:49:54;16.60;99.90
27026;DHT22;14565;48.626;8.978;2023-07-29T03:52:19;16.50;99.90
27026;DHT22;14565;48.626;8.978;2023-07-29T03:54:49;16.50;99.90
27026;DHT22;14565;48.626;8.978;2023-07-29T03:57:15;16.60;99.90
27026;DHT22;14565;48.626;8.978;2023-07-29T03:59:40;16.60;99.90
27026;DHT22;14565;48.626;8.978;2023-07-29T04:02:06;16.60;99.90
27026;DHT22;14565;48.626;8.978;2023-07-29T04:04:32;16.50;99.90
27026;DHT22;14565;48.626;8.978;2023-07-29T04:06:57;16.60;99.90
27026;DHT22;14565;48.626;8.978;2023-07-29T04:09:23;16.50;99.90
27026;DHT22;14565;48.626;8.978;2023-07-29T04:11:49;16.50;99.90
27026;DHT22;14565;48.626;8.978;2023-07-29T04:14:14;16.60;99.90
27026;DHT22;14565;48.626;8.978;2023-07-29T04:16:40;16.60;99.90
27026;DHT22;14565;48.626;8.978;2023-07-29T04:19:06;16.60;99.90
27026;DHT22;14565;48.626;8.978;2023-07-29T04:21:32;16.60;99.90
27026;DHT22;14565;48.626;8.978;2023-07-29T04:23:57;16.70;99.90
27026;DHT22;14565;48.626;8.978;2023-07-29T04:26:23;16.70;99.90
27026;DHT22;14565;48.626;8.978;2023-07-29T04:28:48;16.70;99.90
27026;DHT22;14565;48.626;8.978;2023-07-29T04:31:14;16.70;99.90
27026;DHT22;14565;48.626;8.978;2023-07-29T04:33:40;16.70;99.90
27026;DHT22;14565;48.626;8.978;2023-07-29T04:36:05;16.70;99.90
27026;DHT22;14565;48.626;8.978;2023-07-29T04:38:32;16.70;99.90
27026;DHT22;14565;48.626;8.978;2023-07-29T04:40:58;16.70;99.90
27026;DHT22;14565;48.626;8.978;2023-07-29T04:43:30;16.60;99.90
27026;DHT22;14565;48.626;8.978;2023-07-29T04:45:56;16.50;99.90
27026;DHT22;14565;48.626;8.978;2023-07-29T04:48:22;16.50;99.90
27026;DHT22;14565;48.626;8.978;2023-07-29T04:50:47;16.50;99.90
27026;DHT22;14565;48.626;8.978;2023-07-29T04:53:13;16.50;99.90
27026;DHT22;14565;48.626;8.978;2023-07-29T04:55:41;16.60;99.90
27026;DHT22;14565;48.626;8.978;2023-07-29T04:58:08;16.60;99.90
27026;DHT22;14565;48.626;8.978;2023-07-29T05:00:34;16.70;99.90
27026;DHT22;14565;48.626;8.978;2023-07-29T05:02:59;16.70;99.90
27026;DHT22;14565;48.626;8.978;2023-07-29T05:05:26;16.70;99.90
27026;DHT22;14565;48.626;8.978;2023-07-29T05:07:52;16.70;99.90
27026;DHT22;14565;48.626;8.978;2023-07-29T05:10:18;16.70;99.90
27026;DHT22;14565;48.626;8.978;2023-07-29T05:12:43;16.80;99.90
27026;DHT22;14565;48.626;8.978;2023-07-29T05:15:09;16.80;99.90
27026;DHT22;14565;48.626;8.978;2023-07-29T05:17:35;16.90;99.90
27026;DHT22;14565;48.626;8.978;2023-07-29T05:20:01;16.90;99.90
27026;DHT22;14565;48.626;8.978;2023-07-29T05:22:26;16.90;99.90
27026;DHT22;14565;48.626;8.978;2023-07-29T05:24:52;17.00;99.90
27026;DHT22;14565;48.626;8.978;2023-07-29T05:27:18;17.00;99.90
27026;DHT22;14565;48.626;8.978;2023-07-29T05:29:43;17.10;99.90
27026;DHT22;14565;48.626;8.978;2023-07-29T05:32:09;17.10;99.90
27026;DHT22;14565;48.626;8.978;2023-07-29T05:34:35;17.20;99.90
27026;DHT22;14565;48.626;8.978;2023-07-29T05:37:00;17.30;99.90
27026;DHT22;14565;48.626;8.978;2023-07-29T05:39:26;17.20;99.90
27026;DHT22;14565;48.626;8.978;2023-07-29T05:41:51;17.20;99.90
27026;DHT22;14565;48.626;8.978;2023-07-29T05:44:17;17.20;99.90
27026;DHT22;14565;48.626;8.978;2023-07-29T05:46:43;17.20;99.90
27026;DHT22;14565;48.626;8.978;2023-07-29T05:49:08;17.20;99.90
27026;DHT22;14565;48.626;8.978;2023-07-29T05:51:34;17.30;99.90
27026;DHT22;14565;48.626;8.978;2023-07-29T05:54:00;17.40;99.90
27026;DHT22;14565;48.626;8.978;2023-07-29T05:56:25;17.50;99.90
27026;DHT22;14565;48.626;8.978;2023-07-29T05:58:51;17.60;99.90
27026;DHT22;14565;48.626;8.978;2023-07-29T06:01:17;17.70;99.90
27026;DHT22;14565;48.626;8.978;2023-07-29T06:03:46;17.80;99.90
27026;DHT22;14565;48.626;8.978;2023-07-29T06:06:12;18.60;99.90
27026;DHT22;14565;48.626;8.978;2023-07-29T06:08:38;18.90;99.90
27026;DHT22;14565;48.626;8.978;2023-07-29T06:11:03;18.80;99.90
27026;DHT22;14565;48.626;8.978;2023-07-29T06:13:31;18.70;99.90
27026;DHT22;14565;48.626;8.978;2023-07-29T06:15:57;18.60;99.90
27026;DHT22;14565;48.626;8.978;2023-07-29T06:18:23;18.60;99.90
27026;DHT22;14565;48.626;8.978;2023-07-29T06:20:48;18.60;99.90
27026;DHT22;14565;48.626;8.978;2023-07-29T06:23:14;18.30;99.90
27026;DHT22;14565;48.626;8.978;2023-07-29T06:25:40;18.50;99.90
27026;DHT22;14565;48.626;8.978;2023-07-29T06:28:05;18.20;99.90
27026;DHT22;14565;48.626;8.978;2023-07-29T06:30:31;18.00;99.90
27026;DHT22;14565;48.626;8.978;2023-07-29T06:32:57;18.10;99.90
27026;DHT22;14565;48.626;8.978;2023-07-29T06:35:22;17.90;99.90
27026;DHT22;14565;48.626;8.978;2023-07-29T06:37:49;17.80;99.90
27026;DHT22;14565;48.626;8.978;2023-07-29T06:40:14;17.80;99.90
27026;DHT22;14565;48.626;8.978;2023-07-29T06:42:40;17.80;99.90
27026;DHT22;14565;48.626;8.978;2023-07-29T06:45:06;17.70;99.90
27026;DHT22;14565;48.626;8.978;2023-07-29T06:47:32;17.70;99.90
27026;DHT22;14565;48.626;8.978;2023-07-29T06:49:58;17.50;99.90
27026;DHT22;14565;48.626;8.978;2023-07-29T06:52:23;17.50;99.90
27026;DHT22;14565;48.626;8.978;2023-07-29T06:54:49;17.50;99.90
27026;DHT22;14565;48.626;8.978;2023-07-29T06:57:15;17.40;99.90
27026;DHT22;14565;48.626;8.978;2023-07-29T06:59:40;17.30;99.90
27026;DHT22;14565;48.626;8.978;2023-07-29T07:02:06;17.30;99.90
27026;DHT22;14565;48.626;8.978;2023-07-29T07:04:32;17.30;99.90
27026;DHT22;14565;48.626;8.978;2023-07-29T07:06:58;17.30;99.90
27026;DHT22;14565;48.626;8.978;2023-07-29T07:09:24;17.20;99.90
27026;DHT22;14565;48.626;8.978;2023-07-29T07:11:49;17.20;99.90
27026;DHT22;14565;48.626;8.978;2023-07-29T07:14:15;17.30;99.90
27026;DHT22;14565;48.626;8.978;2023-07-29T07:16:41;17.40;99.90
27026;DHT22;14565;48.626;8.978;2023-07-29T07:19:06;17.50;99.90
27026;DHT22;14565;48.626;8.978;2023-07-29T07:21:32;17.40;99.90
27026;DHT22;14565;48.626;8.978;2023-07-29T07:23:58;17.40;99.90
27026;DHT22;14565;48.626;8.978;2023-07-29T07:26:24;17.50;99.90
27026;DHT22;14565;48.626;8.978;2023-07-29T07:28:49;17.70;99.90
27026;DHT22;14565;48.626;8.978;2023-07-29T07:31:16;17.70;99.90
27026;DHT22;14565;48.626;8.978;2023-07-29T07:33:42;17.80;99.90
27026;DHT22;14565;48.626;8.978;2023-07-29T07:36:08;17.70;99.90
27026;DHT22;14565;48.626;8.978;2023-07-29T07:38:33;17.70;99.90
27026;DHT22;14565;48.626;8.978;2023-07-29T07:40:59;17.80;99.90
27026;DHT22;14565;48.626;8.978;2023-07-29T07:43:25;17.90;99.90
27026;DHT22;14565;48.626;8.978;2023-07-29T07:45:51;17.80;99.90
27026;DHT22;14565;48.626;8.978;2023-07-29T07:48:22;17.90;99.90
27026;DHT22;14565;48.626;8.978;2023-07-29T07:50:48;18.10;99.90
27026;DHT22;14565;48.626;8.978;2023-07-29T07:53:14;18.10;99.90
27026;DHT22;14565;48.626;8.978;2023-07-29T07:55:39;18.20;99.90
27026;DHT22;14565;48.626;8.978;2023-07-29T07:58:05;18.30;99.90
27026;DHT22;14565;48.626;8.978;2023-07-29T08:00:31;18.20;99.90
27026;DHT22;14565;48.626;8.978;2023-07-29T08:02:56;18.20;99.90
27026;DHT22;14565;48.626;8.978;2023-07-29T08:05:22;18.40;99.90
27026;DHT22;14565;48.626;8.978;2023-07-29T08:07:47;18.30;99.90
27026;DHT22;14565;48.626;8.978;2023-07-29T08:10:13;18.50;99.90
27026;DHT22;14565;48.626;8.978;2023-07-29T08:12:39;18.50;99.90
27026;DHT22;14565;48.626;8.978;2023-07-29T08:15:05;18.70;99.90
27026;DHT22;14565;48.626;8.978;2023-07-29T08:17:31;18.70;99.90
27026;DHT22;14565;48.626;8.978;2023-07-29T08:19:56;18.80;99.90
27026;DHT22;14565;48.626;8.978;2023-07-29T08:22:22;18.90;99.90
27026;DHT22;14565;48.626;8.978;2023-07-29T08:24:47;19.30;99.90
27026;DHT22;14565;48.626;8.978;2023-07-29T08:27:13;19.40;99.90
27026;DHT22;14565;48.626;8.978;2023-07-29T08:29:39;19.60;99.90
27026;DHT22;14565;48.626;8.978;2023-07-29T08:32:08;20.30;99.90
27026;DHT22;14565;48.626;8.978;2023-07-29T08:34:34;20.60;99.90
27026;DHT22;14565;48.626;8.978;2023-07-29T08:37:01;20.80;99.90
27026;DHT22;14565;48.626;8.978;2023-07-29T08:39:29;21.10;99.90
27026;DHT22;14565;48.626;8.978;2023-07-29T08:42:03;21.50;99.90
27026;DHT22;14565;48.626;8.978;2023-07-29T08:44:35;21.90;99.90
27026;DHT22;14565;48.626;8.978;2023-07-29T08:47:02;21.80;99.90
27026;DHT22;14565;48.626;8.978;2023-07-29T08:49:28;21.90;99.90
27026;DHT22;14565;48.626;8.978;2023-07-29T08:51:57;22.00;99.90
27026;DHT22;14565;48.626;8.978;2023-07-29T08:54:23;22.00;99.90
27026;DHT22;14565;48.626;8.978;2023-07-29T08:56:50;22.60;99.90
27026;DHT22;14565;48.626;8.978;2023-07-29T08:59:16;22.20;99.90
27026;DHT22;14565;48.626;8.978;2023-07-29T09:01:43;21.90;99.90
27026;DHT22;14565;48.626;8.978;2023-07-29T09:04:09;21.80;99.90
27026;DHT22;14565;48.626;8.978;2023-07-29T09:06:35;22.00;99.90
27026;DHT22;14565;48.626;8.978;2023-07-29T09:09:04;22.10;99.90
27026;DHT22;14565;48.626;8.978;2023-07-29T09:11:30;22.30;99.90
27026;DHT22;14565;48.626;8.978;2023-07-29T09:13:57;22.80;99.90
27026;DHT22;14565;48.626;8.978;2023-07-29T09:16:22;23.70;99.90
27026;DHT22;14565;48.626;8.978;2023-07-29T09:18:49;23.70;99.90
27026;DHT22;14565;48.626;8.978;2023-07-29T09:21:27;24.00;99.90
27026;DHT22;14565;48.626;8.978;2023-07-29T09:23:54;24.40;99.90
27026;DHT22;14565;48.626;8.978;2023-07-29T09:26:27;24.80;99.90
27026;DHT22;14565;48.626;8.978;2023-07-29T09:28:57;24.30;99.90
27026;DHT22;14565;48.626;8.978;2023-07-29T09:31:25;24.50;99.90
27026;DHT22;14565;48.626;8.978;2023-07-29T09:34:04;24.10;99.90
27026;DHT22;14565;48.626;8.978;2023-07-29T09:36:32;23.90;99.90
27026;DHT22;14565;48.626;8.978;2023-07-29T09:38:59;23.50;99.90
27026;DHT22;14565;48.626;8.978;2023-07-29T09:41:26;24.10;99.90
27026;DHT22;14565;48.626;8.978;2023-07-29T09:44:00;24.10;99.90
27026;DHT22;14565;48.626;8.978;2023-07-29T09:46:33;23.80;99.90
27026;DHT22;14565;48.626;8.978;2023-07-29T09:49:02;23.80;99.90
27026;DHT22;14565;48.626;8.978;2023-07-29T09:51:28;23.80;99.90
27026;DHT22;14565;48.626;8.978;2023-07-29T09:53:53;24.20;99.90
27026;DHT22;14565;48.626;8.978;2023-07-29T09:56:26;24.40;99.90
27026;DHT22;14565;48.626;8.978;2023-07-29T09:58:53;24.70;99.90
27026;DHT22;14565;48.626;8.978;2023-07-29T10:01:20;24.80;99.90
27026;DHT22;14565;48.626;8.978;2023-07-29T10:03:47;24.50;99.90
27026;DHT22;14565;48.626;8.978;2023-07-29T10:06:14;24.60;99.90
27026;DHT22;14565;48.626;8.978;2023-07-29T10:08:43;24.80;99.90
27026;DHT22;14565;48.626;8.978;2023-07-29T10:11:09;25.00;99.90
27026;DHT22;14565;48.626;8.978;2023-07-29T10:13:35;25.00;99.90
27026;DHT22;14565;48.626;8.978;2023-07-29T10:16:02;25.10;99.90
27026;DHT22;14565;48.626;8.978;2023-07-29T10:18:29;24.50;99.90
27026;DHT22;14565;48.626;8.978;2023-07-29T10:20:57;24.70;99.90
27026;DHT22;14565;48.626;8.978;2023-07-29T10:23:25;25.40;99.90
27026;DHT22;14565;48.626;8.978;2023-07-29T10:26:06;25.70;99.90
27026;DHT22;14565;48.626;8.978;2023-07-29T10:28:40;25.60;99.90
27026;DHT22;14565;48.626;8.978;2023-07-29T10:31:06;25.40;99.90
27026;DHT22;14565;48.626;8.978;2023-07-29T10:33:34;25.60;99.90
27026;DHT22;14565;48.626;8.978;2023-07-29T10:36:00;25.80;99.90
27026;DHT22;14565;48.626;8.978;2023-07-29T10:38:26;25.90;99.90
27026;DHT22;14565;48.626;8.978;2023-07-29T10:40:54;25.30;99.90
27026;DHT22;14565;48.626;8.978;2023-07-29T10:45:50;25.10;99.90
27026;DHT22;14565;48.626;8.978;2023-07-29T10:54:03;25.50;99.90
27026;DHT22;14565;48.626;8.978;2023-07-29T10:56:33;25.30;99.90
27026;DHT22;14565;48.626;8.978;2023-07-29T11:01:51;25.30;99.90
27026;DHT22;14565;48.626;8.978;2023-07-29T11:09:57;25.40;99.90
27026;DHT22;14565;48.626;8.978;2023-07-29T11:15:31;25.90;99.90
27026;DHT22;14565;48.626;8.978;2023-07-29T11:17:58;25.90;99.90
27026;DHT22;14565;48.626;8.978;2023-07-29T11:20:32;26.10;99.90
27026;DHT22;14565;48.626;8.978;2023-07-29T11:23:00;25.70;99.90
27026;DHT22;14565;48.626;8.978;2023-07-29T11:25:28;25.90;99.90
27026;DHT22;14565;48.626;8.978;2023-07-29T11:27:55;25.90;99.90
27026;DHT22;14565;48.626;8.978;2023-07-29T11:30:22;26.20;99.90
27026;DHT22;14565;48.626;8.978;2023-07-29T11:32:56;26.50;99.90
27026;DHT22;14565;48.626;8.978;2023-07-29T11:35:22;26.30;99.90
27026;DHT22;14565;48.626;8.978;2023-07-29T11:37:49;26.00;99.90
27026;DHT22;14565;48.626;8.978;2023-07-29T11:40:16;25.80;99.90
27026;DHT22;14565;48.626;8.978;2023-07-29T11:42:43;26.00;99.90
27026;DHT22;14565;48.626;8.978;2023-07-29T11:45:10;25.70;99.90
27026;DHT22;14565;48.626;8.978;2023-07-29T11:47:36;25.70;99.90
27026;DHT22;14565;48.626;8.978;2023-07-29T11:50:07;26.40;99.90
27026;DHT22;14565;48.626;8.978;2023-07-29T11:52:38;26.50;99.90
27026;DHT22;14565;48.626;8.978;2023-07-29T11:55:05;26.30;99.90
27026;DHT22;14565;48.626;8.978;2023-07-29T11:57:35;25.90;99.90
27026;DHT22;14565;48.626;8.978;2023-07-29T12:00:06;25.70;99.90
27026;DHT22;14565;48.626;8.978;2023-07-29T12:02:32;25.70;99.90
27026;DHT22;14565;48.626;8.978;2023-07-29T12:04:58;25.80;99.90
27026;DHT22;14565;48.626;8.978;2023-07-29T12:07:24;26.00;99.90
27026;DHT22;14565;48.626;8.978;2023-07-29T12:09:50;26.30;99.90
27026;DHT22;14565;48.626;8.978;2023-07-29T12:12:17;26.70;99.90
27026;DHT22;14565;48.626;8.978;2023-07-29T12:14:47;26.80;99.90
27026;DHT22;14565;48.626;8.978;2023-07-29T12:17:13;26.20;99.90
27026;DHT22;14565;48.626;8.978;2023-07-29T12:19:40;26.40;99.90
27026;DHT22;14565;48.626;8.978;2023-07-29T12:22:07;26.30;99.90
27026;DHT22;14565;48.626;8.978;2023-07-29T12:24:42;26.30;99.90
27026;DHT22;14565;48.626;8.978;2023-07-29T12:27:14;26.10;99.90
27026;DHT22;14565;48.626;8.978;2023-07-29T12:29:43;25.90;99.90
27026;DHT22;14565;48.626;8.978;2023-07-29T12:32:09;25.90;99.90
27026;DHT22;14565;48.626;8.978;2023-07-29T12:34:39;25.60;99.90
27026;DHT22;14565;48.626;8.978;2023-07-29T12:37:06;25.80;99.90
27026;DHT22;14565;48.626;8.978;2023-07-29T12:39:34;25.90;99.90
27026;DHT22;14565;48.626;8.978;2023-07-29T12:42:01;25.90;99.90
27026;DHT22;14565;48.626;8.978;2023-07-29T12:44:33;25.90;99.90
27026;DHT22;14565;48.626;8.978;2023-07-29T12:47:02;25.90;99.90
27026;DHT22;14565;48.626;8.978;2023-07-29T12:49:29;25.80;99.90
27026;DHT22;14565;48.626;8.978;2023-07-29T12:51:56;25.90;99.90
27026;DHT22;14565;48.626;8.978;2023-07-29T12:54:22;25.70;99.90
27026;DHT22;14565;48.626;8.978;2023-07-29T12:56:47;25.70;99.90
27026;DHT22;14565;48.626;8.978;2023-07-29T12:59:13;25.50;99.90
27026;DHT22;14565;48.626;8.978;2023-07-29T13:01:41;25.30;99.90
27026;DHT22;14565;48.626;8.978;2023-07-29T13:04:07;25.10;99.90
27026;DHT22;14565;48.626;8.978;2023-07-29T13:06:33;25.40;99.90
27026;DHT22;14565;48.626;8.978;2023-07-29T13:08:58;25.40;99.90
27026;DHT22;14565;48.626;8.978;2023-07-29T13:11:24;25.70;99.90
27026;DHT22;14565;48.626;8.978;2023-07-29T13:13:50;25.80;99.90
27026;DHT22;14565;48.626;8.978;2023-07-29T13:16:16;25.60;99.90
27026;DHT22;14565;48.626;8.978;2023-07-29T13:18:43;25.80;99.90
27026;DHT22;14565;48.626;8.978;2023-07-29T13:21:09;25.80;99.90
27026;DHT22;14565;48.626;8.978;2023-07-29T13:23:35;25.90;99.90
27026;DHT22;14565;48.626;8.978;2023-07-29T13:26:01;25.80;99.90
27026;DHT22;14565;48.626;8.978;2023-07-29T13:28:26;26.00;99.90
27026;DHT22;14565;48.626;8.978;2023-07-29T13:30:52;26.20;99.90
27026;DHT22;14565;48.626;8.978;2023-07-29T13:33:18;26.30;99.80
27026;DHT22;14565;48.626;8.978;2023-07-29T13:35:43;26.30;99.90
27026;DHT22;14565;48.626;8.978;2023-07-29T13:38:09;26.10;99.90
27026;DHT22;14565;48.626;8.978;2023-07-29T13:40:36;25.60;99.60
27026;DHT22;14565;48.626;8.978;2023-07-29T13:43:02;25.60;99.90
27026;DHT22;14565;48.626;8.978;2023-07-29T13:45:28;25.70;99.90
27026;DHT22;14565;48.626;8.978;2023-07-29T13:47:53;25.50;99.90
27026;DHT22;14565;48.626;8.978;2023-07-29T13:50:19;25.50;99.90
27026;DHT22;14565;48.626;8.978;2023-07-29T13:52:45;25.50;99.90
27026;DHT22;14565;48.626;8.978;2023-07-29T13:55:11;25.10;99.90
27026;DHT22;14565;48.626;8.978;2023-07-29T13:57:37;25.30;99.90
27026;DHT22;14565;48.626;8.978;2023-07-29T14:00:04;25.30;99.90
27026;DHT22;14565;48.626;8.978;2023-07-29T14:02:30;25.40;99.90
27026;DHT22;14565;48.626;8.978;2023-07-29T14:04:56;25.30;99.90
27026;DHT22;14565;48.626;8.978;2023-07-29T14:07:22;25.40;99.90
27026;DHT22;14565;48.626;8.978;2023-07-29T14:09:48;25.20;99.90
27026;DHT22;14565;48.626;8.978;2023-07-29T14:12:14;25.30;99.90
27026;DHT22;14565;48.626;8.978;2023-07-29T14:14:41;25.30;99.90
27026;DHT22;14565;48.626;8.978;2023-07-29T14:17:07;25.40;99.90
27026;DHT22;14565;48.626;8.978;2023-07-29T14:19:36;25.50;99.90
27026;DHT22;14565;48.626;8.978;2023-07-29T14:22:04;25.60;99.90
27026;DHT22;14565;48.626;8.978;2023-07-29T14:24:30;25.80;99.90
27026;DHT22;14565;48.626;8.978;2023-07-29T14:26:56;25.90;99.90
27026;DHT22;14565;48.626;8.978;2023-07-29T14:29:22;26.00;99.90
27026;DHT22;14565;48.626;8.978;2023-07-29T14:31:48;25.60;99.90
27026;DHT22;14565;48.626;8.978;2023-07-29T14:34:14;25.40;99.90
27026;DHT22;14565;48.626;8.978;2023-07-29T14:36:39;25.00;99.90
27026;DHT22;14565;48.626;8.978;2023-07-29T14:39:05;24.90;99.90
27026;DHT22;14565;48.626;8.978;2023-07-29T14:41:31;25.10;99.90
27026;DHT22;14565;48.626;8.978;2023-07-29T14:43:57;25.00;99.90
27026;DHT22;14565;48.626;8.978;2023-07-29T14:46:23;25.10;99.90
27026;DHT22;14565;48.626;8.978;2023-07-29T14:48:48;25.10;99.90
27026;DHT22;14565;48.626;8.978;2023-07-29T14:51:14;25.20;99.90
27026;DHT22;14565;48.626;8.978;2023-07-29T14:53:40;25.30;99.90
27026;DHT22;14565;48.626;8.978;2023-07-29T14:56:06;25.50;99.90
27026;DHT22;14565;48.626;8.978;2023-07-29T14:58:32;25.40;99.90
27026;DHT22;14565;48.626;8.978;2023-07-29T15:00:57;25.60;99.90
27026;DHT22;14565;48.626;8.978;2023-07-29T15:03:24;25.50;99.90
27026;DHT22;14565;48.626;8.978;2023-07-29T15:05:50;25.10;99.90
27026;DHT22;14565;48.626;8.978;2023-07-29T15:08:16;25.10;99.90
27026;DHT22;14565;48.626;8.978;2023-07-29T15:10:47;24.90;99.90
27026;DHT22;14565;48.626;8.978;2023-07-29T15:13:13;24.90;99.90
27026;DHT22;14565;48.626;8.978;2023-07-29T15:15:43;24.90;99.90
27026;DHT22;14565;48.626;8.978;2023-07-29T15:18:09;24.80;99.90
27026;DHT22;14565;48.626;8.978;2023-07-29T15:20:35;24.80;99.90
27026;DHT22;14565;48.626;8.978;2023-07-29T15:23:01;24.80;99.90
27026;DHT22;14565;48.626;8.978;2023-07-29T15:25:30;24.90;99.90
27026;DHT22;14565;48.626;8.978;2023-07-29T15:27:56;24.70;99.90
27026;DHT22;14565;48.626;8.978;2023-07-29T15:30:23;24.80;99.90
27026;DHT22;14565;48.626;8.978;2023-07-29T15:32:49;24.70;99.90
27026;DHT22;14565;48.626;8.978;2023-07-29T15:35:15;24.80;99.90
27026;DHT22;14565;48.626;8.978;2023-07-29T15:37:40;24.90;99.90
27026;DHT22;14565;48.626;8.978;2023-07-29T15:40:07;25.10;99.90
27026;DHT22;14565;48.626;8.978;2023-07-29T15:42:33;25.20;99.90
27026;DHT22;14565;48.626;8.978;2023-07-29T15:44:58;25.20;99.90
27026;DHT22;14565;48.626;8.978;2023-07-29T15:47:24;24.90;99.90
27026;DHT22;14565;48.626;8.978;2023-07-29T15:49:50;24.90;99.90